sensor_id;sensor_type;location;lat;lon;timestamp;temperature;humidity
18147;DHT22;9199;48.832;9.182;2023-05-27T00:00:49;14.40;88.30
18147;DHT22;9199;48.832;9.182;2023-05-27T00:03:15;14.40;87.80
18147;DHT22;9199;48.832;9.182;2023-05-27T00:05:42;14.40;87.70
18147;DHT22;9199;48.832;9.182;2023-05-27T00:08:11;14.40;88.10
18147;DHT22;9199;48.832;9.182;2023-05-27T00:10:37;14.30;88.70
18147;DHT22;9199;48.832;9.182;2023-05-27T00:13:04;14.30;88.50
18147;DHT22;9199;48.832;9.182;2023-05-27T00:15:31;14.30;88.30
18147;DHT22;9199;48.832;9.182;2023-05-27T00:17:57;14.30;88.50
18147;DHT22;9199;48.832;9.182;2023-05-27T00:20:25;14.40;88.70
18147;DHT22;9199;48.832;9.182;2023-05-27T00:22:52;14.40;88.70
18147;DHT22;9199;48.832;9.182;2023-05-27T00:25:20;14.50;88.80
18147;DHT22;9199;48.832;9.182;2023-05-27T00:27:47;14.50;88.60
18147;DHT22;9199;48.832;9.182;2023-05-27T00:30:13;14.50;88.70
18147;DHT22;9199;48.832;9.182;2023-05-27T00:32:41;14.60;88.30
18147;DHT22;9199;48.832;9.182;2023-05-27T00:35:08;14.60;88.10
18147;DHT22;9199;48.832;9.182;2023-05-27T00:37:35;14.60;87.80
18147;DHT22;9199;48.832;9.182;2023-05-27T00:40:02;14.60;88.70
18147;DHT22;9199;48.832;9.182;2023-05-27T00:42:31;14.60;87.60
18147;DHT22;9199;48.832;9.182;2023-05-27T00:44:58;14.50;88.70
18147;DHT22;9199;48.832;9.182;2023-05-27T00:47:27;14.50;89.10
18147;DHT22;9199;48.832;9.182;2023-05-27T00:49:55;14.50;88.20
18147;DHT22;9199;48.832;9.182;2023-05-27T00:52:22;14.50;88.60
18147;DHT22;9199;48.832;9.182;2023-05-27T00:54:49;14.40;88.70
18147;DHT22;9199;48.832;9.182;2023-05-27T00:57:17;14.40;88.80
18147;DHT22;9199;48.832;9.182;2023-05-27T00:59:45;14.40;89.50
18147;DHT22;9199;48.832;9.182;2023-05-27T01:02:12;14.40;89.00
18147;DHT22;9199;48.832;9.182;2023-05-27T01:04:40;14.40;88.30
18147;DHT22;9199;48.832;9.182;2023-05-27T01:07:13;14.30;89.30
18147;DHT22;9199;48.832;9.182;2023-05-27T01:09:45;14.30;89.50
18147;DHT22;9199;48.832;9.182;2023-05-27T01:12:18;14.20;89.60
18147;DHT22;9199;48.832;9.182;2023-05-27T01:14:49;14.20;90.30
18147;DHT22;9199;48.832;9.182;2023-05-27T01:17:18;14.10;90.30
18147;DHT22;9199;48.832;9.182;2023-05-27T01:19:45;14.10;90.50
18147;DHT22;9199;48.832;9.182;2023-05-27T01:22:13;14.10;90.60
18147;DHT22;9199;48.832;9.182;2023-05-27T01:24:41;14.00;90.70
18147;DHT22;9199;48.832;9.182;2023-05-27T01:27:09;14.00;90.70
18147;DHT22;9199;48.832;9.182;2023-05-27T01:29:38;14.00;90.80
18147;DHT22;9199;48.832;9.182;2023-05-27T01:32:09;14.00;90.90
18147;DHT22;9199;48.832;9.182;2023-05-27T01:34:41;13.90;91.10
18147;DHT22;9199;48.832;9.182;2023-05-27T01:37:13;13.90;91.20
18147;DHT22;9199;48.832;9.182;2023-05-27T01:39:43;13.80;91.40
18147;DHT22;9199;48.832;9.182;2023-05-27T01:42:10;13.80;91.50
18147;DHT22;9199;48.832;9.182;2023-05-27T01:44:37;13.70;91.60
18147;DHT22;9199;48.832;9.182;2023-05-27T01:47:05;13.70;92.10
18147;DHT22;9199;48.832;9.182;2023-05-27T01:49:32;13.60;92.60
18147;DHT22;9199;48.832;9.182;2023-05-27T01:52:01;13.50;93.30
18147;DHT22;9199;48.832;9.182;2023-05-27T01:54:27;13.40;93.50
18147;DHT22;9199;48.832;9.182;2023-05-27T01:56:55;13.40;93.80
18147;DHT22;9199;48.832;9.182;2023-05-27T01:59:22;13.40;94.10
18147;DHT22;9199;48.832;9.182;2023-05-27T02:01:49;13.40;94.00
18147;DHT22;9199;48.832;9.182;2023-05-27T02:04:17;13.30;94.00
18147;DHT22;9199;48.832;9.182;2023-05-27T02:06:44;13.30;94.00
18147;DHT22;9199;48.832;9.182;2023-05-27T02:09:10;13.30;94.30
18147;DHT22;9199;48.832;9.182;2023-05-27T02:11:38;13.20;94.60
18147;DHT22;9199;48.832;9.182;2023-05-27T02:14:06;13.20;94.70
18147;DHT22;9199;48.832;9.182;2023-05-27T02:16:33;13.20;94.60
18147;DHT22;9199;48.832;9.182;2023-05-27T02:19:02;13.20;94.40
18147;DHT22;9199;48.832;9.182;2023-05-27T02:21:30;13.20;94.70
18147;DHT22;9199;48.832;9.182;2023-05-27T02:23:56;13.30;94.60
18147;DHT22;9199;48.832;9.182;2023-05-27T02:26:23;13.30;94.70
18147;DHT22;9199;48.832;9.182;2023-05-27T02:28:50;13.20;95.40
18147;DHT22;9199;48.832;9.182;2023-05-27T02:31:18;13.20;95.60
18147;DHT22;9199;48.832;9.182;2023-05-27T02:33:45;13.10;96.40
18147;DHT22;9199;48.832;9.182;2023-05-27T02:36:12;13.00;96.50
18147;DHT22;9199;48.832;9.182;2023-05-27T02:38:39;12.90;97.40
18147;DHT22;9199;48.832;9.182;2023-05-27T02:41:06;12.90;97.50
18147;DHT22;9199;48.832;9.182;2023-05-27T02:43:32;12.90;98.10
18147;DHT22;9199;48.832;9.182;2023-05-27T02:45:59;12.90;98.20
18147;DHT22;9199;48.832;9.182;2023-05-27T02:48:27;12.90;98.20
18147;DHT22;9199;48.832;9.182;2023-05-27T02:50:54;12.90;98.40
18147;DHT22;9199;48.832;9.182;2023-05-27T02:53:20;12.90;98.40
18147;DHT22;9199;48.832;9.182;2023-05-27T02:55:47;12.80;98.60
18147;DHT22;9199;48.832;9.182;2023-05-27T02:58:14;12.80;98.60
18147;DHT22;9199;48.832;9.182;2023-05-27T03:00:40;12.80;98.80
18147;DHT22;9199;48.832;9.182;2023-05-27T03:03:07;12.70;98.80
18147;DHT22;9199;48.832;9.182;2023-05-27T03:05:35;12.70;99.10
18147;DHT22;9199;48.832;9.182;2023-05-27T03:08:02;12.70;99.70
18147;DHT22;9199;48.832;9.182;2023-05-27T03:10:31;12.60;99.90
18147;DHT22;9199;48.832;9.182;2023-05-27T03:12:58;12.60;99.90
18147;DHT22;9199;48.832;9.182;2023-05-27T03:15:25;12.60;99.90
18147;DHT22;9199;48.832;9.182;2023-05-27T03:17:55;12.60;99.90
18147;DHT22;9199;48.832;9.182;2023-05-27T03:20:22;12.60;99.90
18147;DHT22;9199;48.832;9.182;2023-05-27T03:22:50;12.60;99.90
18147;DHT22;9199;48.832;9.182;2023-05-27T03:25:17;12.60;99.90
18147;DHT22;9199;48.832;9.182;2023-05-27T03:27:43;12.50;99.90
18147;DHT22;9199;48.832;9.182;2023-05-27T03:30:10;12.50;99.90
18147;DHT22;9199;48.832;9.182;2023-05-27T03:32:37;12.40;99.90
18147;DHT22;9199;48.832;9.182;2023-05-27T03:35:05;12.40;99.90
18147;DHT22;9199;48.832;9.182;2023-05-27T03:37:31;12.40;99.90
18147;DHT22;9199;48.832;9.182;2023-05-27T03:39:59;12.40;99.90
18147;DHT22;9199;48.832;9.182;2023-05-27T03:42:26;12.40;99.90
18147;DHT22;9199;48.832;9.182;2023-05-27T03:44:53;12.40;99.90
18147;DHT22;9199;48.832;9.182;2023-05-27T03:47:19;12.40;99.90
18147;DHT22;9199;48.832;9.182;2023-05-27T03:49:47;12.40;99.90
18147;DHT22;9199;48.832;9.182;2023-05-27T03:52:14;12.40;99.90
18147;DHT22;9199;48.832;9.182;2023-05-27T03:54:40;12.40;99.90
18147;DHT22;9199;48.832;9.182;2023-05-27T03:57:09;12.40;99.90
18147;DHT22;9199;48.832;9.182;2023-05-27T03:59:36;12.40;99.90
18147;DHT22;9199;48.832;9.182;2023-05-27T04:02:03;12.40;99.90
18147;DHT22;9199;48.832;9.182;2023-05-27T04:04:29;12.40;99.90
18147;DHT22;9199;48.832;9.182;2023-05-27T04:06:56;12.50;99.90
18147;DHT22;9199;48.832;9.182;2023-05-27T04:09:23;12.50;99.90
18147;DHT22;9199;48.832;9.182;2023-05-27T04:11:49;12.50;99.90
18147;DHT22;9199;48.832;9.182;2023-05-27T04:14:17;12.50;99.90
18147;DHT22;9199;48.832;9.182;2023-05-27T04:16:44;12.50;99.90
18147;DHT22;9199;48.832;9.182;2023-05-27T04:19:11;12.50;99.90
18147;DHT22;9199;48.832;9.182;2023-05-27T04:21:39;12.50;99.90
18147;DHT22;9199;48.832;9.182;2023-05-27T04:24:06;12.50;99.90
18147;DHT22;9199;48.832;9.182;2023-05-27T04:26:32;12.50;99.90
18147;DHT22;9199;48.832;9.182;2023-05-27T04:28:59;12.60;99.90
18147;DHT22;9199;48.832;9.182;2023-05-27T04:31:27;13.20;99.90
18147;DHT22;9199;48.832;9.182;2023-05-27T04:33:55;13.60;99.90
18147;DHT22;9199;48.832;9.182;2023-05-27T04:36:22;14.00;99.90
18147;DHT22;9199;48.832;9.182;2023-05-27T04:38:50;14.30;99.90
18147;DHT22;9199;48.832;9.182;2023-05-27T04:41:17;14.40;99.90
18147;DHT22;9199;48.832;9.182;2023-05-27T04:43:46;14.60;99.90
18147;DHT22;9199;48.832;9.182;2023-05-27T04:46:13;14.70;99.90
18147;DHT22;9199;48.832;9.182;2023-05-27T04:48:41;14.70;99.90
18147;DHT22;9199;48.832;9.182;2023-05-27T04:51:10;14.40;99.90
18147;DHT22;9199;48.832;9.182;2023-05-27T04:53:37;14.20;99.90
18147;DHT22;9199;48.832;9.182;2023-05-27T04:56:05;14.00;99.90
18147;DHT22;9199;48.832;9.182;2023-05-27T04:58:33;13.90;99.90
18147;DHT22;9199;48.832;9.182;2023-05-27T05:01:00;13.80;99.90
18147;DHT22;9199;48.832;9.182;2023-05-27T05:03:27;13.80;99.90
18147;DHT22;9199;48.832;9.182;2023-05-27T05:06:06;13.80;99.90
18147;DHT22;9199;48.832;9.182;2023-05-27T05:08:33;13.80;99.90
18147;DHT22;9199;48.832;9.182;2023-05-27T05:10:59;13.90;99.90
18147;DHT22;9199;48.832;9.182;2023-05-27T05:13:26;14.00;99.90
18147;DHT22;9199;48.832;9.182;2023-05-27T05:15:54;14.10;99.90
18147;DHT22;9199;48.832;9.182;2023-05-27T05:18:21;14.20;99.90
18147;DHT22;9199;48.832;9.182;2023-05-27T05:20:48;14.20;99.90
18147;DHT22;9199;48.832;9.182;2023-05-27T05:23:16;14.30;99.90
18147;DHT22;9199;48.832;9.182;2023-05-27T05:25:43;14.30;99.90
18147;DHT22;9199;48.832;9.182;2023-05-27T05:28:09;14.40;99.90
18147;DHT22;9199;48.832;9.182;2023-05-27T05:30:36;14.40;99.90
18147;DHT22;9199;48.832;9.182;2023-05-27T05:33:04;14.60;99.90
18147;DHT22;9199;48.832;9.182;2023-05-27T05:35:31;14.70;99.90
18147;DHT22;9199;48.832;9.182;2023-05-27T05:37:57;14.80;99.90
18147;DHT22;9199;48.832;9.182;2023-05-27T05:40:25;14.90;99.80
18147;DHT22;9199;48.832;9.182;2023-05-27T05:42:52;15.00;99.90
18147;DHT22;9199;48.832;9.182;2023-05-27T05:45:19;15.10;99.50
18147;DHT22;9199;48.832;9.182;2023-05-27T05:47:45;15.20;99.40
18147;DHT22;9199;48.832;9.182;2023-05-27T05:50:12;15.20;99.30
18147;DHT22;9199;48.832;9.182;2023-05-27T05:52:39;15.30;99.20
18147;DHT22;9199;48.832;9.182;2023-05-27T05:55:06;15.40;98.50
18147;DHT22;9199;48.832;9.182;2023-05-27T05:57:34;15.50;98.30
18147;DHT22;9199;48.832;9.182;2023-05-27T06:00:01;15.60;98.30
18147;DHT22;9199;48.832;9.182;2023-05-27T06:02:28;15.70;98.10
18147;DHT22;9199;48.832;9.182;2023-05-27T06:04:54;15.70;98.60
18147;DHT22;9199;48.832;9.182;2023-05-27T06:07:21;15.80;98.20
18147;DHT22;9199;48.832;9.182;2023-05-27T06:09:48;15.90;97.70
18147;DHT22;9199;48.832;9.182;2023-05-27T06:12:14;16.10;97.30
18147;DHT22;9199;48.832;9.182;2023-05-27T06:14:42;16.10;97.40
18147;DHT22;9199;48.832;9.182;2023-05-27T06:17:09;16.30;97.80
18147;DHT22;9199;48.832;9.182;2023-05-27T06:19:36;16.50;96.90
18147;DHT22;9199;48.832;9.182;2023-05-27T06:22:02;16.70;96.30
18147;DHT22;9199;48.832;9.182;2023-05-27T06:24:30;16.90;96.10
18147;DHT22;9199;48.832;9.182;2023-05-27T06:26:57;17.00;95.00
18147;DHT22;9199;48.832;9.182;2023-05-27T06:29:23;17.30;94.90
18147;DHT22;9199;48.832;9.182;2023-05-27T06:31:51;17.40;94.60
18147;DHT22;9199;48.832;9.182;2023-05-27T06:34:20;17.40;94.70
18147;DHT22;9199;48.832;9.182;2023-05-27T06:36:46;17.50;94.80
18147;DHT22;9199;48.832;9.182;2023-05-27T06:39:14;17.50;94.90
18147;DHT22;9199;48.832;9.182;2023-05-27T06:41:41;17.70;94.70
18147;DHT22;9199;48.832;9.182;2023-05-27T06:44:07;17.80;94.20
18147;DHT22;9199;48.832;9.182;2023-05-27T06:46:34;18.10;93.70
18147;DHT22;9199;48.832;9.182;2023-05-27T06:49:02;18.20;93.40
18147;DHT22;9199;48.832;9.182;2023-05-27T06:51:29;18.40;92.70
18147;DHT22;9199;48.832;9.182;2023-05-27T06:53:56;18.60;91.90
18147;DHT22;9199;48.832;9.182;2023-05-27T06:56:23;18.80;92.00
18147;DHT22;9199;48.832;9.182;2023-05-27T06:58:50;18.80;92.60
18147;DHT22;9199;48.832;9.182;2023-05-27T07:01:16;18.80;92.20
18147;DHT22;9199;48.832;9.182;2023-05-27T07:03:43;18.80;91.90
18147;DHT22;9199;48.832;9.182;2023-05-27T07:06:11;18.70;91.70
18147;DHT22;9199;48.832;9.182;2023-05-27T07:08:38;18.60;91.80
18147;DHT22;9199;48.832;9.182;2023-05-27T07:11:04;18.50;92.40
18147;DHT22;9199;48.832;9.182;2023-05-27T07:13:31;18.60;92.50
18147;DHT22;9199;48.832;9.182;2023-05-27T07:15:58;18.80;92.00
18147;DHT22;9199;48.832;9.182;2023-05-27T07:18:25;18.90;92.00
18147;DHT22;9199;48.832;9.182;2023-05-27T07:20:51;19.00;91.00
18147;DHT22;9199;48.832;9.182;2023-05-27T07:23:20;19.10;91.20
18147;DHT22;9199;48.832;9.182;2023-05-27T07:25:46;19.10;92.00
18147;DHT22;9199;48.832;9.182;2023-05-27T07:28:13;19.10;90.80
18147;DHT22;9199;48.832;9.182;2023-05-27T07:30:40;19.30;91.60
18147;DHT22;9199;48.832;9.182;2023-05-27T07:33:07;19.20;91.40
18147;DHT22;9199;48.832;9.182;2023-05-27T07:35:33;19.30;90.80
18147;DHT22;9199;48.832;9.182;2023-05-27T07:38:00;19.40;90.10
18147;DHT22;9199;48.832;9.182;2023-05-27T07:40:29;19.50;90.50
18147;DHT22;9199;48.832;9.182;2023-05-27T07:42:56;19.60;91.10
18147;DHT22;9199;48.832;9.182;2023-05-27T07:45:22;19.60;90.10
18147;DHT22;9199;48.832;9.182;2023-05-27T07:47:49;19.90;90.10
18147;DHT22;9199;48.832;9.182;2023-05-27T07:50:16;20.00;90.00
18147;DHT22;9199;48.832;9.182;2023-05-27T07:52:43;20.00;88.50
18147;DHT22;9199;48.832;9.182;2023-05-27T07:55:10;20.00;88.40
18147;DHT22;9199;48.832;9.182;2023-05-27T07:57:38;20.10;89.50
18147;DHT22;9199;48.832;9.182;2023-05-27T08:00:06;20.30;89.00
18147;DHT22;9199;48.832;9.182;2023-05-27T08:02:32;20.60;88.10
18147;DHT22;9199;48.832;9.182;2023-05-27T08:04:59;20.70;86.90
18147;DHT22;9199;48.832;9.182;2023-05-27T08:07:26;20.80;86.30
18147;DHT22;9199;48.832;9.182;2023-05-27T08:09:52;21.00;85.50
18147;DHT22;9199;48.832;9.182;2023-05-27T08:12:19;21.10;85.20
18147;DHT22;9199;48.832;9.182;2023-05-27T08:14:48;21.20;85.50
18147;DHT22;9199;48.832;9.182;2023-05-27T08:17:15;21.30;84.70
18147;DHT22;9199;48.832;9.182;2023-05-27T08:19:41;21.30;85.40
18147;DHT22;9199;48.832;9.182;2023-05-27T08:22:08;21.60;86.20
18147;DHT22;9199;48.832;9.182;2023-05-27T08:24:35;21.90;82.40
18147;DHT22;9199;48.832;9.182;2023-05-27T08:27:02;22.00;83.60
18147;DHT22;9199;48.832;9.182;2023-05-27T08:29:31;22.20;83.00
18147;DHT22;9199;48.832;9.182;2023-05-27T08:31:59;22.20;82.20
18147;DHT22;9199;48.832;9.182;2023-05-27T08:34:26;22.30;82.00
18147;DHT22;9199;48.832;9.182;2023-05-27T08:36:53;22.40;81.10
18147;DHT22;9199;48.832;9.182;2023-05-27T08:39:19;22.30;80.80
18147;DHT22;9199;48.832;9.182;2023-05-27T08:41:46;22.30;81.80
18147;DHT22;9199;48.832;9.182;2023-05-27T08:44:13;22.50;81.50
18147;DHT22;9199;48.832;9.182;2023-05-27T08:46:40;22.70;83.20
18147;DHT22;9199;48.832;9.182;2023-05-27T08:49:08;22.90;82.40
18147;DHT22;9199;48.832;9.182;2023-05-27T08:51:38;23.00;81.40
18147;DHT22;9199;48.832;9.182;2023-05-27T08:54:07;23.30;80.00
18147;DHT22;9199;48.832;9.182;2023-05-27T08:56:35;23.70;79.80
18147;DHT22;9199;48.832;9.182;2023-05-27T08:59:02;23.70;78.00
18147;DHT22;9199;48.832;9.182;2023-05-27T09:01:29;23.70;79.20
18147;DHT22;9199;48.832;9.182;2023-05-27T09:03:57;23.70;77.30
18147;DHT22;9199;48.832;9.182;2023-05-27T09:06:25;23.70;79.00
18147;DHT22;9199;48.832;9.182;2023-05-27T09:08:52;23.90;77.70
18147;DHT22;9199;48.832;9.182;2023-05-27T09:11:23;23.90;75.10
18147;DHT22;9199;48.832;9.182;2023-05-27T09:13:53;24.10;77.90
18147;DHT22;9199;48.832;9.182;2023-05-27T09:16:20;24.30;77.10
18147;DHT22;9199;48.832;9.182;2023-05-27T09:18:48;24.70;74.60
18147;DHT22;9199;48.832;9.182;2023-05-27T09:21:15;24.80;75.40
18147;DHT22;9199;48.832;9.182;2023-05-27T09:23:44;25.10;74.10
18147;DHT22;9199;48.832;9.182;2023-05-27T09:26:12;24.90;73.10
18147;DHT22;9199;48.832;9.182;2023-05-27T09:28:39;24.90;77.80
18147;DHT22;9199;48.832;9.182;2023-05-27T09:31:07;25.10;75.30
18147;DHT22;9199;48.832;9.182;2023-05-27T09:33:35;25.50;73.50
18147;DHT22;9199;48.832;9.182;2023-05-27T09:36:03;25.50;73.40
18147;DHT22;9199;48.832;9.182;2023-05-27T09:38:30;25.60;71.20
18147;DHT22;9199;48.832;9.182;2023-05-27T09:40:59;25.70;71.60
18147;DHT22;9199;48.832;9.182;2023-05-27T09:43:26;25.80;72.30
18147;DHT22;9199;48.832;9.182;2023-05-27T09:45:57;25.90;69.40
18147;DHT22;9199;48.832;9.182;2023-05-27T09:48:26;26.30;70.00
18147;DHT22;9199;48.832;9.182;2023-05-27T09:50:54;26.60;69.10
18147;DHT22;9199;48.832;9.182;2023-05-27T09:53:23;26.90;69.30
18147;DHT22;9199;48.832;9.182;2023-05-27T09:55:51;27.20;67.70
18147;DHT22;9199;48.832;9.182;2023-05-27T09:58:20;27.60;67.20
18147;DHT22;9199;48.832;9.182;2023-05-27T10:00:48;27.70;65.60
18147;DHT22;9199;48.832;9.182;2023-05-27T10:03:16;28.20;65.20
18147;DHT22;9199;48.832;9.182;2023-05-27T10:05:43;28.10;64.90
18147;DHT22;9199;48.832;9.182;2023-05-27T10:08:11;28.30;63.60
18147;DHT22;9199;48.832;9.182;2023-05-27T10:10:38;28.40;63.40
18147;DHT22;9199;48.832;9.182;2023-05-27T10:13:05;28.40;60.80
18147;DHT22;9199;48.832;9.182;2023-05-27T10:15:34;28.50;61.80
18147;DHT22;9199;48.832;9.182;2023-05-27T10:18:03;28.50;60.20
18147;DHT22;9199;48.832;9.182;2023-05-27T10:20:32;28.50;59.30
18147;DHT22;9199;48.832;9.182;2023-05-27T10:23:09;28.50;60.20
18147;DHT22;9199;48.832;9.182;2023-05-27T10:25:37;28.50;60.50
18147;DHT22;9199;48.832;9.182;2023-05-27T10:28:04;28.70;60.70
18147;DHT22;9199;48.832;9.182;2023-05-27T10:30:44;28.80;59.20
18147;DHT22;9199;48.832;9.182;2023-05-27T10:33:12;29.40;56.70
18147;DHT22;9199;48.832;9.182;2023-05-27T10:35:40;29.80;55.20
18147;DHT22;9199;48.832;9.182;2023-05-27T10:38:14;29.60;56.90
18147;DHT22;9199;48.832;9.182;2023-05-27T10:40:42;29.70;55.40
18147;DHT22;9199;48.832;9.182;2023-05-27T10:43:15;29.60;56.00
18147;DHT22;9199;48.832;9.182;2023-05-27T10:45:43;30.10;54.80
18147;DHT22;9199;48.832;9.182;2023-05-27T10:48:16;30.70;53.90
18147;DHT22;9199;48.832;9.182;2023-05-27T10:50:50;30.80;51.00
18147;DHT22;9199;48.832;9.182;2023-05-27T10:53:18;30.50;51.70
18147;DHT22;9199;48.832;9.182;2023-05-27T10:55:46;30.30;51.90
18147;DHT22;9199;48.832;9.182;2023-05-27T10:58:15;30.10;52.50
18147;DHT22;9199;48.832;9.182;2023-05-27T11:00:44;30.40;49.30
18147;DHT22;9199;48.832;9.182;2023-05-27T11:03:16;30.60;50.90
18147;DHT22;9199;48.832;9.182;2023-05-27T11:05:43;30.90;49.80
18147;DHT22;9199;48.832;9.182;2023-05-27T11:08:11;30.90;50.30
18147;DHT22;9199;48.832;9.182;2023-05-27T11:10:40;30.60;49.70
18147;DHT22;9199;48.832;9.182;2023-05-27T11:13:07;30.60;48.20
18147;DHT22;9199;48.832;9.182;2023-05-27T11:15:34;30.90;47.60
18147;DHT22;9199;48.832;9.182;2023-05-27T11:18:02;31.50;47.50
18147;DHT22;9199;48.832;9.182;2023-05-27T11:20:35;31.50;46.20
18147;DHT22;9199;48.832;9.182;2023-05-27T11:23:02;31.50;48.10
18147;DHT22;9199;48.832;9.182;2023-05-27T11:25:28;31.10;46.60
18147;DHT22;9199;48.832;9.182;2023-05-27T11:27:55;30.60;47.90
18147;DHT22;9199;48.832;9.182;2023-05-27T11:30:24;30.40;47.30
18147;DHT22;9199;48.832;9.182;2023-05-27T11:32:53;30.80;46.50
18147;DHT22;9199;48.832;9.182;2023-05-27T11:35:29;31.20;44.80
18147;DHT22;9199;48.832;9.182;2023-05-27T11:37:55;30.80;46.70
18147;DHT22;9199;48.832;9.182;2023-05-27T11:40:22;30.50;48.80
18147;DHT22;9199;48.832;9.182;2023-05-27T11:42:49;30.70;50.70
18147;DHT22;9199;48.832;9.182;2023-05-27T11:45:19;31.10;48.40
18147;DHT22;9199;48.832;9.182;2023-05-27T11:47:46;31.50;46.80
18147;DHT22;9199;48.832;9.182;2023-05-27T11:50:17;31.70;46.70
18147;DHT22;9199;48.832;9.182;2023-05-27T11:52:52;32.40;46.60
18147;DHT22;9199;48.832;9.182;2023-05-27T11:55:19;32.20;46.70
18147;DHT22;9199;48.832;9.182;2023-05-27T11:57:46;32.60;43.50
18147;DHT22;9199;48.832;9.182;2023-05-27T12:00:13;32.80;45.40
18147;DHT22;9199;48.832;9.182;2023-05-27T12:02:41;32.60;44.40
18147;DHT22;9199;48.832;9.182;2023-05-27T12:05:08;32.30;46.00
18147;DHT22;9199;48.832;9.182;2023-05-27T12:07:35;32.00;45.00
18147;DHT22;9199;48.832;9.182;2023-05-27T12:10:07;31.90;45.10
18147;DHT22;9199;48.832;9.182;2023-05-27T12:12:35;32.50;43.20
18147;DHT22;9199;48.832;9.182;2023-05-27T12:15:04;33.40;42.30
18147;DHT22;9199;48.832;9.182;2023-05-27T12:17:30;33.70;42.80
18147;DHT22;9199;48.832;9.182;2023-05-27T12:19:57;33.40;42.40
18147;DHT22;9199;48.832;9.182;2023-05-27T12:22:24;32.90;43.80
18147;DHT22;9199;48.832;9.182;2023-05-27T12:24:50;32.70;43.40
18147;DHT22;9199;48.832;9.182;2023-05-27T12:27:19;32.40;42.70
18147;DHT22;9199;48.832;9.182;2023-05-27T12:29:46;32.50;41.90
18147;DHT22;9199;48.832;9.182;2023-05-27T12:32:13;32.80;41.60
18147;DHT22;9199;48.832;9.182;2023-05-27T12:34:40;32.90;42.60
18147;DHT22;9199;48.832;9.182;2023-05-27T12:37:07;32.80;43.00
18147;DHT22;9199;48.832;9.182;2023-05-27T12:39:33;32.70;42.60
18147;DHT22;9199;48.832;9.182;2023-05-27T12:42:00;33.20;41.80
18147;DHT22;9199;48.832;9.182;2023-05-27T12:44:29;33.30;42.10
18147;DHT22;9199;48.832;9.182;2023-05-27T12:46:55;33.50;41.60
18147;DHT22;9199;48.832;9.182;2023-05-27T12:49:22;33.00;41.30
18147;DHT22;9199;48.832;9.182;2023-05-27T12:51:49;32.60;41.50
18147;DHT22;9199;48.832;9.182;2023-05-27T12:54:16;32.80;41.30
18147;DHT22;9199;48.832;9.182;2023-05-27T12:56:42;33.00;40.70
18147;DHT22;9199;48.832;9.182;2023-05-27T12:59:09;33.00;40.30
18147;DHT22;9199;48.832;9.182;2023-05-27T13:01:37;33.20;40.20
18147;DHT22;9199;48.832;9.182;2023-05-27T13:04:04;33.50;41.80
18147;DHT22;9199;48.832;9.182;2023-05-27T13:06:31;33.70;40.20
18147;DHT22;9199;48.832;9.182;2023-05-27T13:08:58;33.20;40.60
18147;DHT22;9199;48.832;9.182;2023-05-27T13:11:24;33.20;41.50
18147;DHT22;9199;48.832;9.182;2023-05-27T13:13:52;33.10;41.50
18147;DHT22;9199;48.832;9.182;2023-05-27T13:16:18;32.70;40.50
18147;DHT22;9199;48.832;9.182;2023-05-27T13:18:46;33.10;40.00
18147;DHT22;9199;48.832;9.182;2023-05-27T13:21:13;33.70;39.80
18147;DHT22;9199;48.832;9.182;2023-05-27T13:23:40;34.00;39.70
18147;DHT22;9199;48.832;9.182;2023-05-27T13:26:06;33.60;39.70
18147;DHT22;9199;48.832;9.182;2023-05-27T13:28:33;32.90;40.80
18147;DHT22;9199;48.832;9.182;2023-05-27T13:31:00;33.00;40.30
18147;DHT22;9199;48.832;9.182;2023-05-27T13:33:27;33.20;38.80
18147;DHT22;9199;48.832;9.182;2023-05-27T13:35:55;33.30;38.80
18147;DHT22;9199;48.832;9.182;2023-05-27T13:38:22;33.20;40.00
18147;DHT22;9199;48.832;9.182;2023-05-27T13:40:49;33.30;39.50
18147;DHT22;9199;48.832;9.182;2023-05-27T13:43:16;32.70;39.20
18147;DHT22;9199;48.832;9.182;2023-05-27T13:45:43;32.20;40.60
18147;DHT22;9199;48.832;9.182;2023-05-27T13:48:09;32.50;39.50
18147;DHT22;9199;48.832;9.182;2023-05-27T13:50:36;32.90;39.10
18147;DHT22;9199;48.832;9.182;2023-05-27T13:53:04;32.90;41.10
18147;DHT22;9199;48.832;9.182;2023-05-27T13:55:31;32.60;38.80
18147;DHT22;9199;48.832;9.182;2023-05-27T13:57:57;32.30;39.40
18147;DHT22;9199;48.832;9.182;2023-05-27T14:00:24;32.30;40.10
18147;DHT22;9199;48.832;9.182;2023-05-27T14:02:51;32.60;38.80
18147;DHT22;9199;48.832;9.182;2023-05-27T14:05:19;32.50;40.10
18147;DHT22;9199;48.832;9.182;2023-05-27T14:07:46;32.50;40.30
18147;DHT22;9199;48.832;9.182;2023-05-27T14:10:14;32.60;39.10
18147;DHT22;9199;48.832;9.182;2023-05-27T14:12:41;32.20;39.10
18147;DHT22;9199;48.832;9.182;2023-05-27T14:15:08;32.20;38.80
18147;DHT22;9199;48.832;9.182;2023-05-27T14:17:36;32.70;39.20
18147;DHT22;9199;48.832;9.182;2023-05-27T14:20:03;32.60;38.80
18147;DHT22;9199;48.832;9.182;2023-05-27T14:22:35;33.00;36.70
18147;DHT22;9199;48.832;9.182;2023-05-27T14:25:02;32.90;38.40
18147;DHT22;9199;48.832;9.182;2023-05-27T14:27:30;33.10;38.40
18147;DHT22;9199;48.832;9.182;2023-05-27T14:29:57;32.70;37.30
18147;DHT22;9199;48.832;9.182;2023-05-27T14:32:24;32.50;36.20
18147;DHT22;9199;48.832;9.182;2023-05-27T14:34:50;32.60;36.90
18147;DHT22;9199;48.832;9.182;2023-05-27T14:37:17;33.20;37.30
18147;DHT22;9199;48.832;9.182;2023-05-27T14:39:43;33.50;34.80
18147;DHT22;9199;48.832;9.182;2023-05-27T14:42:10;33.30;34.90
18147;DHT22;9199;48.832;9.182;2023-05-27T14:44:38;32.50;35.20
18147;DHT22;9199;48.832;9.182;2023-05-27T14:47:05;32.80;35.90
18147;DHT22;9199;48.832;9.182;2023-05-27T14:49:32;32.60;34.60
18147;DHT22;9199;48.832;9.182;2023-05-27T14:51:58;32.30;34.40
18147;DHT22;9199;48.832;9.182;2023-05-27T14:54:25;32.30;35.50
18147;DHT22;9199;48.832;9.182;2023-05-27T14:56:52;32.50;35.40
18147;DHT22;9199;48.832;9.182;2023-05-27T14:59:18;32.90;34.30
18147;DHT22;9199;48.832;9.182;2023-05-27T15:01:48;33.00;33.50
18147;DHT22;9199;48.832;9.182;2023-05-27T15:04:15;33.40;33.90
18147;DHT22;9199;48.832;9.182;2023-05-27T15:06:42;33.30;33.50
18147;DHT22;9199;48.832;9.182;2023-05-27T15:09:09;33.20;34.30
18147;DHT22;9199;48.832;9.182;2023-05-27T15:11:37;33.30;33.90
18147;DHT22;9199;48.832;9.182;2023-05-27T15:14:04;33.50;33.90
18147;DHT22;9199;48.832;9.182;2023-05-27T15:16:30;33.00;33.60
18147;DHT22;9199;48.832;9.182;2023-05-27T15:18:59;32.50;34.30
18147;DHT22;9199;48.832;9.182;2023-05-27T15:21:26;31.90;34.80
18147;DHT22;9199;48.832;9.182;2023-05-27T15:23:52;30.70;37.00
18147;DHT22;9199;48.832;9.182;2023-05-27T15:26:19;29.70;37.20
18147;DHT22;9199;48.832;9.182;2023-05-27T15:28:47;28.80;38.10
18147;DHT22;9199;48.832;9.182;2023-05-27T15:31:14;28.30;38.50
18147;DHT22;9199;48.832;9.182;2023-05-27T15:33:40;28.10;38.60
18147;DHT22;9199;48.832;9.182;2023-05-27T15:36:09;27.80;38.80
18147;DHT22;9199;48.832;9.182;2023-05-27T15:38:35;27.40;40.90
18147;DHT22;9199;48.832;9.182;2023-05-27T15:41:02;27.20;40.50
18147;DHT22;9199;48.832;9.182;2023-05-27T15:43:29;27.20;41.30
18147;DHT22;9199;48.832;9.182;2023-05-27T15:45:55;27.10;39.80